Time;durP1;ratioP1;P1;durP2;ratioP2;P2;SDS_P1;SDS_P2;PMS_P1;PMS_P2;Temp;Humidity;BMP_temperature;BMP_pressure;BME280_temperature;BME280_humidity;BME280_pressure;Samples;Min_cycle;Max_cycle;Signal;HPM_P1;HPM_P2
2023/02/01 00:01:08;;;;;;;18.50;5.20;;;;;;;5.78;100.00;101924.31;4716149;30;20069;-67
2023/02/01 00:03:36;;;;;;;19.85;5.25;;;;;;;5.79;100.00;101926.78;4701829;30;20061;-68
2023/02/01 00:06:04;;;;;;;23.33;5.60;;;;;;;5.80;100.00;101922.22;4713286;30;20057;-67
2023/02/01 00:08:32;;;;;;;21.58;5.25;;;;;;;5.80;100.00;101909.56;4704647;30;20131;-68
2023/02/01 00:11:05;;;;;;;23.65;5.25;;;;;;;5.79;100.00;101905.16;4719735;30;20049;-69
2023/02/01 00:13:35;;;;;;;21.30;5.38;;;;;;;5.83;100.00;101902.88;4719864;30;20059;-69
2023/02/01 00:16:03;;;;;;;18.30;4.55;;;;;;;5.83;100.00;101895.59;4719174;30;20057;-68
2023/02/01 00:18:31;;;;;;;20.75;5.43;;;;;;;5.83;100.00;101878.53;4722651;30;20056;-67
2023/02/01 00:20:59;;;;;;;17.52;4.75;;;;;;;5.83;100.00;101867.72;4719048;30;20057;-67
2023/02/01 00:23:27;;;;;;;23.52;4.78;;;;;;;5.85;100.00;101865.66;4718411;30;20064;-67
2023/02/01 00:25:55;;;;;;;19.83;4.80;;;;;;;5.84;100.00;101874.78;4719232;30;20056;-68
2023/02/01 00:28:22;;;;;;;15.13;4.78;;;;;;;5.84;100.00;101881.03;4718600;30;20053;-69
2023/02/01 00:30:57;;;;;;;18.33;4.97;;;;;;;5.86;100.00;101883.53;4718898;30;20057;-67
2023/02/01 00:33:25;;;;;;;21.05;5.20;;;;;;;5.85;100.00;101888.09;4719618;30;20067;-67
2023/02/01 00:35:58;;;;;;;19.80;5.55;;;;;;;5.84;100.00;101889.13;4703820;30;20045;-67
2023/02/01 00:38:27;;;;;;;19.02;5.22;;;;;;;5.84;100.00;101891.84;4713850;30;20060;-67
2023/02/01 00:40:54;;;;;;;19.25;5.28;;;;;;;5.81;99.99;101894.97;4701914;30;20053;-68
2023/02/01 00:43:22;;;;;;;18.98;5.28;;;;;;;5.79;99.27;101907.88;4715444;30;20128;-67
2023/02/01 00:45:50;;;;;;;20.83;5.03;;;;;;;5.80;99.13;101895.16;4717581;30;20069;-67
2023/02/01 00:48:18;;;;;;;22.88;5.63;;;;;;;5.79;98.89;101886.22;4713279;30;20053;-68
2023/02/01 00:50:46;;;;;;;17.23;4.72;;;;;;;5.78;99.11;101875.66;4700893;30;20065;-68
2023/02/01 00:53:13;;;;;;;19.17;5.57;;;;;;;5.80;98.59;101895.16;4700747;30;20102;-68
2023/02/01 00:55:44;;;;;;;25.15;5.75;;;;;;;5.78;97.76;101886.47;4686522;30;20065;-68
2023/02/01 00:58:12;;;;;;;17.67;5.07;;;;;;;5.77;97.54;101888.31;4713452;30;20092;-68
2023/02/01 01:00:40;;;;;;;20.67;5.07;;;;;;;5.79;97.97;101886.22;4710922;30;20058;-68
2023/02/01 01:03:17;;;;;;;16.60;4.57;;;;;;;5.79;98.32;101872.72;4718081;30;20499;-68
2023/02/01 01:05:46;;;;;;;17.30;4.85;;;;;;;5.79;97.51;101888.94;4717972;30;20091;-68
2023/02/01 01:08:15;;;;;;;18.63;5.40;;;;;;;5.77;97.35;101891.00;4699496;30;20049;-68
2023/02/01 01:10:43;;;;;;;23.10;5.28;;;;;;;5.75;97.41;101890.41;4700774;30;20050;-68
2023/02/01 01:13:11;;;;;;;17.23;5.15;;;;;;;5.73;97.21;101885.22;4698884;30;20136;-68
2023/02/01 01:15:39;;;;;;;20.20;5.18;;;;;;;5.74;97.39;101894.16;4718160;30;20060;-68
2023/02/01 01:18:07;;;;;;;20.73;5.43;;;;;;;5.73;97.15;101887.09;4717312;30;20096;-68
2023/02/01 01:20:37;;;;;;;19.52;5.07;;;;;;;5.72;97.04;101880.00;4716799;30;20155;-66
2023/02/01 01:23:06;;;;;;;19.33;5.40;;;;;;;5.71;97.34;101873.75;4702944;30;20136;-68
2023/02/01 01:25:40;;;;;;;20.60;5.03;;;;;;;5.71;96.47;101873.75;4717889;30;20469;-67
2023/02/01 01:28:09;;;;;;;17.50;4.60;;;;;;;5.75;97.13;101874.19;4703166;30;20054;-67
2023/02/01 01:30:36;;;;;;;17.20;4.85;;;;;;;5.74;96.70;101872.50;4702548;30;20503;-67
2023/02/01 01:33:04;;;;;;;19.70;5.55;;;;;;;5.75;97.03;101879.59;4718408;30;20056;-67
2023/02/01 01:35:33;;;;;;;16.17;5.00;;;;;;;5.73;96.96;101884.38;4718542;30;20509;-69
2023/02/01 01:38:02;;;;;;;18.15;5.15;;;;;;;5.72;96.52;101878.16;4717093;30;20123;-68
2023/02/01 01:40:30;;;;;;;18.65;5.10;;;;;;;5.70;96.64;101879.38;4707870;30;20053;-67
2023/02/01 01:42:58;;;;;;;17.05;4.97;;;;;;;5.68;96.34;101876.06;4702209;30;20061;-67
2023/02/01 01:45:33;;;;;;;16.85;4.63;;;;;;;5.67;96.57;101885.22;4699082;30;20054;-67
2023/02/01 01:48:29;;;;;;;22.30;4.97;;;;;;;5.67;96.78;101887.91;4699987;30;20063;-68
2023/02/01 01:51:08;;;;;;;20.42;5.32;;;;;;;5.67;96.51;101879.81;4674373;30;20081;-68
2023/02/01 01:53:45;;;;;;;16.80;4.93;;;;;;;5.69;96.68;101877.72;4679156;30;20160;-68
2023/02/01 01:56:13;;;;;;;19.88;4.60;;;;;;;5.67;96.78;101879.81;4668350;30;20084;-68
2023/02/01 01:58:43;;;;;;;19.23;5.30;;;;;;;5.66;97.06;101878.97;4668438;30;20464;-68
2023/02/01 02:01:10;;;;;;;21.05;5.28;;;;;;;5.66;97.17;101888.97;4693191;30;20054;-68
2023/02/01 02:03:44;;;;;;;21.83;5.82;;;;;;;5.66;96.82;101878.16;4659037;30;20049;-68
2023/02/01 02:06:23;;;;;;;27.17;5.22;;;;;;;5.65;97.07;101877.31;4682218;30;20084;-68
2023/02/01 02:08:51;;;;;;;16.60;5.30;;;;;;;5.62;97.24;101883.13;4682450;30;20058;-68
2023/02/01 02:11:18;;;;;;;19.67;5.00;;;;;;;5.60;97.46;101874.38;4684801;30;20163;-67
2023/02/01 02:13:49;;;;;;;19.27;4.40;;;;;;;5.63;97.37;101862.31;4683313;30;20064;-68
2023/02/01 02:16:43;;;;;;;19.52;4.80;;;;;;;5.62;97.56;101855.28;4693780;30;20416;-68
2023/02/01 02:19:36;;;;;;;21.70;4.95;;;;;;;5.64;97.22;101848.59;4665600;30;20062;-68
2023/02/01 02:22:22;;;;;;;19.42;4.78;;;;;;;5.63;97.47;101846.09;4670652;30;20061;-68
2023/02/01 02:24:49;;;;;;;;;;;;;;;5.64;97.63;101837.78;4682765;30;20054;-69
2023/02/01 02:27:24;;;;;;;13.73;4.35;;;;;;;5.64;97.40;101826.16;4683191;30;20278;-67
2023/02/01 02:30:32;;;;;;;20.52;5.28;;;;;;;5.65;97.59;101835.91;4670078;30;20527;-67
2023/02/01 02:33:12;;;;;;;17.35;4.43;;;;;;;5.67;97.47;101833.84;4680162;30;20109;-67
2023/02/01 02:36:02;;;;;;;18.42;4.65;;;;;;;5.63;97.13;101838.84;4678737;30;20046;-68
2023/02/01 02:38:34;;;;;;;18.58;5.15;;;;;;;5.66;97.26;101834.88;4692062;30;20065;-68
2023/02/01 02:47:56;;;;;;;17.23;4.70;;;;;;;5.66;97.94;101834.88;4699946;30;20140;-67
2023/02/01 03:04:58;;;;;;;20.88;5.65;;;;;;;5.55;100.00;101818.25;4710074;30;20053;-68
2023/02/01 03:07:49;;;;;;;23.35;6.15;;;;;;;5.58;100.00;101813.47;4716312;30;20080;-67
2023/02/01 03:10:36;;;;;;;17.20;5.10;;;;;;;5.64;100.00;101809.94;4701976;30;20136;-67
2023/02/01 03:13:17;;;;;;;22.08;5.97;;;;;;;5.62;100.00;101818.25;4701889;30;20096;-67
2023/02/01 03:15:59;;;;;;;18.38;4.97;;;;;;;5.60;100.00;101819.50;4703265;30;20082;-67
2023/02/01 03:18:38;;;;;;;19.40;5.07;;;;;;;5.62;100.00;101818.25;4719758;30;20055;-67
2023/02/01 03:21:12;;;;;;;19.08;5.05;;;;;;;5.62;100.00;101809.31;4705623;30;20069;-67
2023/02/01 03:23:44;;;;;;;27.38;5.80;;;;;;;5.62;100.00;101795.78;4720551;30;20060;-67
2023/02/01 03:26:15;;;;;;;21.98;6.07;;;;;;;5.63;100.00;101803.69;4704788;30;20126;-67
2023/02/01 03:28:59;;;;;;;22.27;5.28;;;;;;;5.66;100.00;101802.44;4720821;30;20487;-68
2023/02/01 03:31:28;;;;;;;17.73;5.10;;;;;;;5.66;100.00;101813.25;4720439;30;20049;-67
2023/02/01 03:33:56;;;;;;;21.58;5.75;;;;;;;5.65;100.00;101807.03;4722910;30;20049;-67
2023/02/01 03:36:31;;;;;;;18.85;5.43;;;;;;;5.66;100.00;101802.44;4721369;30;20103;-66
2023/02/01 03:39:16;;;;;;;21.70;5.75;;;;;;;5.64;100.00;101810.75;4708151;30;20073;-67
2023/02/01 03:41:48;;;;;;;20.55;5.78;;;;;;;5.63;100.00;101803.69;4727363;30;20088;-67
2023/02/01 03:44:23;;;;;;;18.00;5.05;;;;;;;5.63;100.00;101790.19;4725140;30;20073;-66
2023/02/01 03:46:55;;;;;;;20.48;5.63;;;;;;;5.67;100.00;101787.88;4717163;30;20073;-67
2023/02/01 03:50:00;;;;;;;21.45;5.70;;;;;;;5.62;100.00;101780.41;4716386;30;20050;-66
2023/02/01 03:52:35;;;;;;;19.08;5.00;;;;;;;5.60;100.00;101787.06;4714631;30;20081;-66
2023/02/01 03:55:05;;;;;;;22.38;5.88;;;;;;;5.58;100.00;101803.50;4703104;30;20052;-67
2023/02/01 03:57:37;;;;;;;21.02;6.22;;;;;;;5.57;100.00;101801.00;4681661;30;20056;-68
2023/02/01 04:00:15;;;;;;;23.05;5.35;;;;;;;5.58;100.00;101791.84;4715865;30;20116;-66
2023/02/01 04:02:44;;;;;;;19.15;5.28;;;;;;;5.55;100.00;101787.69;4717222;30;20054;-68
2023/02/01 04:05:12;;;;;;;20.45;5.35;;;;;;;5.54;100.00;101786.03;4704236;30;20085;-67
2023/02/01 04:07:47;;;;;;;18.92;5.03;;;;;;;5.52;100.00;101794.34;4689804;30;20053;-67
2023/02/01 04:10:15;;;;;;;21.55;5.63;;;;;;;5.50;100.00;101795.59;4720463;30;20060;-67
2023/02/01 04:12:46;;;;;;;21.08;5.60;;;;;;;5.49;100.00;101789.38;4705218;30;20061;-67
2023/02/01 04:15:13;;;;;;;27.27;6.38;;;;;;;5.50;100.00;101799.13;4717536;30;20533;-69
2023/02/01 04:17:41;;;;;;;20.40;5.70;;;;;;;5.52;100.00;101797.03;4719336;30;20115;-69
2023/02/01 04:20:09;;;;;;;22.25;5.55;;;;;;;5.50;100.00;101801.81;4720126;30;20061;-69
2023/02/01 04:22:37;;;;;;;22.67;5.88;;;;;;;5.49;100.00;101802.88;4719492;30;20140;-68
2023/02/01 04:25:05;;;;;;;23.98;6.50;;;;;;;5.48;100.00;101797.69;4719913;30;20060;-69
2023/02/01 04:27:33;;;;;;;21.65;6.10;;;;;;;5.46;100.00;101803.31;4719182;30;20060;-68
2023/02/01 04:30:01;;;;;;;25.05;6.38;;;;;;;5.46;100.00;101807.88;4688863;30;20067;-68
2023/02/01 04:32:29;;;;;;;21.50;5.20;;;;;;;5.46;100.00;101802.47;4719593;30;20491;-66
2023/02/01 04:34:57;;;;;;;23.88;6.10;;;;;;;5.44;100.00;101799.97;4704065;30;20059;-67
2023/02/01 04:37:24;;;;;;;19.77;5.95;;;;;;;5.45;100.00;101800.81;4719844;30;20064;-68
2023/02/01 04:39:52;;;;;;;20.30;5.95;;;;;;;5.44;100.00;101794.56;4716834;30;20519;-67
2023/02/01 04:42:19;;;;;;;21.77;5.00;;;;;;;5.44;100.00;101799.16;4719012;30;20053;-66
2023/02/01 04:44:47;;;;;;;22.60;5.53;;;;;;;5.43;100.00;101798.31;4714488;30;20073;-67
2023/02/01 04:47:15;;;;;;;26.80;5.80;;;;;;;5.44;100.00;101805.38;4701068;30;20058;-68
2023/02/01 04:49:43;;;;;;;24.52;5.70;;;;;;;5.42;100.00;101818.28;4693733;30;20066;-67
2023/02/01 04:52:10;;;;;;;26.25;6.47;;;;;;;5.43;100.00;101822.63;4669313;30;20441;-68
2023/02/01 04:54:38;;;;;;;24.13;5.75;;;;;;;5.43;100.00;101816.41;4684290;30;20162;-67
2023/02/01 04:57:06;;;;;;;24.00;5.70;;;;;;;5.43;100.00;101814.53;4696555;30;20053;-68
2023/02/01 04:59:34;;;;;;;24.50;6.10;;;;;;;5.40;100.00;101809.53;4682746;30;20050;-68
2023/02/01 05:02:01;;;;;;;20.27;5.85;;;;;;;5.39;100.00;101807.03;4683213;30;20050;-67
2023/02/01 05:04:29;;;;;;;27.02;7.05;;;;;;;5.39;100.00;101807.03;4682631;30;20054;-68
2023/02/01 05:06:56;;;;;;;29.10;6.78;;;;;;;5.37;100.00;101814.53;4684536;30;20062;-68
2023/02/01 05:09:24;;;;;;;24.83;6.43;;;;;;;5.33;100.00;101809.53;4683894;30;20046;-68
2023/02/01 05:14:38;;;;;;;26.98;6.65;;;;;;;5.41;100.00;101800.41;4691939;30;20156;-67
2023/02/01 05:17:05;;;;;;;29.73;6.30;;;;;;;5.44;100.00;101801.84;4684417;30;20050;-69
2023/02/01 05:19:33;;;;;;;22.40;5.88;;;;;;;5.46;100.00;101802.47;4696998;30;20447;-69
2023/02/01 05:22:00;;;;;;;24.75;6.25;;;;;;;5.53;100.00;101804.13;4687789;30;20053;-68
2023/02/01 05:24:28;;;;;;;22.60;6.03;;;;;;;5.52;100.00;101802.44;4703197;30;20077;-68
2023/02/01 05:26:56;;;;;;;27.50;5.95;;;;;;;5.58;100.00;101799.94;4685664;30;20108;-68
2023/02/01 05:29:24;;;;;;;22.73;6.35;;;;;;;5.60;100.00;101797.88;4684144;30;20133;-68
2023/02/01 05:31:52;;;;;;;25.85;6.07;;;;;;;5.58;100.00;101789.13;4684217;30;20088;-70
2023/02/01 05:34:20;;;;;;;23.30;6.53;;;;;;;5.57;100.00;101782.06;4691430;30;20064;-69
2023/02/01 05:36:48;;;;;;;25.67;6.20;;;;;;;5.58;100.00;101779.19;4687528;30;20137;-69
2023/02/01 05:39:15;;;;;;;27.85;6.38;;;;;;;5.53;100.00;101771.69;4682572;30;20054;-70
2023/02/01 05:41:44;;;;;;;25.02;6.95;;;;;;;5.52;100.00;101771.91;4695669;30;20053;-69
2023/02/01 05:44:23;;;;;;;25.58;6.18;;;;;;;5.54;100.00;101781.44;4704167;30;20081;-69
2023/02/01 05:46:52;;;;;;;24.20;5.88;;;;;;;5.52;100.00;101797.03;4715683;30;20475;-71
2023/02/01 05:49:20;;;;;;;24.70;6.20;;;;;;;5.53;100.00;101801.44;4715071;30;20079;-71
2023/02/01 05:51:47;;;;;;;22.40;5.95;;;;;;;5.51;100.00;101799.97;4716790;30;20063;-70
2023/02/01 05:54:15;;;;;;;23.05;6.10;;;;;;;5.50;100.00;101809.94;4702492;30;20057;-70
2023/02/01 05:56:43;;;;;;;24.27;6.68;;;;;;;5.52;100.00;101812.44;4718271;30;20053;-70
2023/02/01 05:59:10;;;;;;;28.27;6.63;;;;;;;5.52;100.00;101815.97;4716290;30;20405;-71
2023/02/01 06:01:38;;;;;;;23.00;6.38;;;;;;;5.52;100.00;101809.75;4718005;30;20051;-70
2023/02/01 06:04:05;;;;;;;25.45;6.88;;;;;;;5.52;100.00;101812.44;4717025;30;20064;-70
2023/02/01 06:06:33;;;;;;;25.58;6.90;;;;;;;5.51;100.00;101817.03;4061176;30;10000768;-70
2023/02/01 06:09:01;;;;;;;21.30;5.88;;;;;;;5.49;100.00;101808.28;4707714;30;20061;-70
2023/02/01 06:11:29;;;;;;;27.50;6.40;;;;;;;5.54;100.00;101821.19;4713150;30;20056;-72
2023/02/01 06:13:59;;;;;;;25.67;6.45;;;;;;;5.60;100.00;101808.69;4713275;30;20053;-69
2023/02/01 06:16:27;;;;;;;27.92;6.40;;;;;;;5.58;100.00;101817.03;4713075;30;20086;-70
2023/02/01 06:18:55;;;;;;;23.27;5.80;;;;;;;5.58;100.00;101805.34;4699054;30;20067;-71
2023/02/01 06:21:25;;;;;;;22.17;5.80;;;;;;;5.59;100.00;101801.63;4700340;30;20061;-71
2023/02/01 06:23:54;;;;;;;22.15;5.60;;;;;;;5.63;100.00;101794.75;4714311;30;20507;-71
2023/02/01 06:26:24;;;;;;;23.05;5.60;;;;;;;5.62;100.00;101798.50;4711443;30;20412;-72
2023/02/01 06:28:52;;;;;;;28.05;6.50;;;;;;;5.64;100.00;101804.53;4688259;30;20065;-71
2023/02/01 06:31:20;;;;;;;24.63;6.07;;;;;;;5.69;100.00;101810.13;4700138;30;20071;-72
2023/02/01 06:33:53;;;;;;;22.80;5.75;;;;;;;5.67;100.00;101810.31;4716871;30;20132;-72
2023/02/01 06:36:21;;;;;;;27.60;6.13;;;;;;;5.65;100.00;101814.28;4716761;30;20057;-71
2023/02/01 06:38:49;;;;;;;21.85;5.65;;;;;;;5.66;100.00;101822.19;4716546;30;20071;-71
2023/02/01 06:41:17;;;;;;;22.83;6.22;;;;;;;5.63;100.00;101814.50;4712602;30;20667;-71
2023/02/01 06:43:46;;;;;;;27.92;5.90;;;;;;;5.67;100.00;101828.44;4697819;30;20529;-71
2023/02/01 06:46:14;;;;;;;23.83;6.32;;;;;;;5.67;100.00;101831.97;4697317;30;20107;-71
2023/02/01 06:48:43;;;;;;;28.83;6.88;;;;;;;5.67;100.00;101833.84;4712516;30;20060;-71
2023/02/01 06:51:23;;;;;;;24.92;5.97;;;;;;;5.69;100.00;101831.75;4715921;30;20049;-71
2023/02/01 06:53:51;;;;;;;23.88;5.55;;;;;;;5.71;100.00;101821.56;4717439;30;20083;-70
2023/02/01 06:56:19;;;;;;;28.85;6.55;;;;;;;5.75;100.00;101822.81;4702151;30;20076;-70
2023/02/01 06:58:49;;;;;;;19.65;6.07;;;;;;;5.72;100.00;101834.03;4702656;30;20061;-70
2023/02/01 07:01:17;;;;;;;26.33;6.07;;;;;;;5.71;100.00;101827.81;4699906;30;20072;-70
2023/02/01 07:03:52;;;;;;;26.92;6.10;;;;;;;5.74;100.00;101827.38;4717524;30;20045;-70
2023/02/01 07:06:20;;;;;;;28.23;6.47;;;;;;;5.72;100.00;101828.63;4717017;30;20088;-70
2023/02/01 07:08:47;;;;;;;21.35;5.57;;;;;;;5.69;100.00;101832.59;4717050;30;20139;-70
2023/02/01 07:11:16;;;;;;;22.48;5.78;;;;;;;5.67;100.00;101821.16;4700228;30;20137;-67
2023/02/01 07:13:45;;;;;;;25.10;6.53;;;;;;;5.67;100.00;101831.97;4701239;30;20057;-67
2023/02/01 07:16:18;;;;;;;24.73;6.00;;;;;;;5.70;100.00;101831.56;4701218;30;20056;-66
2023/02/01 07:18:47;;;;;;;20.40;5.43;;;;;;;5.67;100.00;101837.38;4717812;30;20061;-68
2023/02/01 07:21:14;;;;;;;22.08;5.38;;;;;;;5.71;100.00;101830.50;4715713;30;20067;-68
2023/02/01 07:23:42;;;;;;;21.90;5.85;;;;;;;5.74;100.00;101831.94;4701700;30;20075;-67
2023/02/01 07:26:12;;;;;;;23.58;6.35;;;;;;;5.71;100.00;101843.19;4717737;30;20061;-68
2023/02/01 07:28:41;;;;;;;24.58;6.00;;;;;;;5.67;100.00;101842.78;4717616;30;20060;-68
2023/02/01 07:31:18;;;;;;;24.88;6.35;;;;;;;5.71;100.00;101841.31;4717005;30;20060;-68
2023/02/01 07:33:46;;;;;;;23.02;6.03;;;;;;;5.69;100.00;101839.88;4686625;30;20696;-68
2023/02/01 07:36:16;;;;;;;26.55;6.60;;;;;;;5.66;100.00;101838.41;4716936;30;20136;-66
2023/02/01 07:38:44;;;;;;;22.20;5.30;;;;;;;5.64;100.00;101835.09;4719017;30;20053;-67
2023/02/01 07:41:12;;;;;;;24.88;5.75;;;;;;;5.62;100.00;101839.03;4719641;30;20061;-66
2023/02/01 07:43:39;;;;;;;25.05;6.25;;;;;;;5.64;100.00;101836.97;4718975;30;20076;-65
2023/02/01 07:46:07;;;;;;;24.70;5.78;;;;;;;5.63;100.00;101836.16;4720434;30;20075;-64
2023/02/01 07:48:35;;;;;;;22.52;6.05;;;;;;;5.63;100.00;101841.56;4719157;30;20131;-66
2023/02/01 07:51:05;;;;;;;24.58;6.28;;;;;;;5.72;100.00;101839.44;4704964;30;20060;-65
2023/02/01 07:53:34;;;;;;;18.63;5.50;;;;;;;5.65;100.00;101847.59;4703560;30;20422;-66
2023/02/01 07:56:04;;;;;;;27.50;5.72;;;;;;;5.62;100.00;101833.63;4706145;30;20084;-65
2023/02/01 07:58:32;;;;;;;20.05;5.53;;;;;;;5.61;100.00;101835.53;4723127;30;20454;-65
2023/02/01 08:03:46;;;;;;;;;;;;;;;5.61;100.00;101842.81;4706521;30;20049;-65
2023/02/01 08:06:14;;;;;;;22.92;5.72;;;;;;;5.64;100.00;101845.09;4719433;30;20373;-66
2023/02/01 08:08:44;;;;;;;22.60;5.32;;;;;;;5.68;100.00;101843.63;4719612;30;20067;-66
2023/02/01 08:11:12;;;;;;;21.65;6.00;;;;;;;5.67;100.00;101841.94;4720643;30;20087;-66
2023/02/01 08:13:40;;;;;;;26.60;5.55;;;;;;;5.67;100.00;101841.94;4704894;30;20491;-66
2023/02/01 08:16:10;;;;;;;21.30;6.22;;;;;;;5.69;100.00;101850.69;4703419;30;20057;-65
2023/02/01 08:18:38;;;;;;;24.05;5.60;;;;;;;5.66;100.00;101851.94;4704549;30;20144;-66
2023/02/01 08:21:09;;;;;;;21.52;5.35;;;;;;;5.65;100.00;101858.41;4718771;30;20060;-66
2023/02/01 08:23:38;;;;;;;23.77;6.78;;;;;;;5.73;100.00;101865.47;4719604;30;20061;-66
2023/02/01 08:26:10;;;;;;;21.73;5.45;;;;;;;5.71;100.00;101860.25;4717023;30;20049;-65
2023/02/01 08:28:39;;;;;;;24.40;6.00;;;;;;;5.74;100.00;101865.22;4718593;30;20566;-65
2023/02/01 08:31:08;;;;;;;25.70;5.28;;;;;;;5.74;100.00;101867.94;4718126;30;20531;-65
2023/02/01 08:33:39;;;;;;;24.52;6.03;;;;;;;5.72;100.00;101869.19;4718218;30;20080;-66
2023/02/01 08:36:08;;;;;;;20.85;5.72;;;;;;;5.74;100.00;101862.53;4717133;30;20400;-67
2023/02/01 08:38:37;;;;;;;22.95;6.53;;;;;;;5.77;100.00;101861.28;4718372;30;20053;-63
2023/02/01 08:41:06;;;;;;;25.35;6.63;;;;;;;5.79;100.00;101867.31;4719630;30;20076;-63
2023/02/01 08:43:33;;;;;;;22.83;6.43;;;;;;;5.76;100.00;101851.50;4720113;30;20075;-64
2023/02/01 08:46:02;;;;;;;23.95;5.65;;;;;;;5.77;100.00;101863.97;4719137;30;20566;-63
2023/02/01 08:48:31;;;;;;;18.67;6.25;;;;;;;5.76;100.00;101860.44;4705495;30;20423;-64
2023/02/01 08:51:03;;;;;;;22.25;6.03;;;;;;;5.80;100.00;101847.34;4718893;30;20057;-63
2023/02/01 08:53:31;;;;;;;29.35;7.10;;;;;;;5.79;100.00;101842.13;4719459;30;20084;-65
2023/02/01 08:55:59;;;;;;;24.50;6.72;;;;;;;5.78;100.00;101843.19;4688105;30;20095;-61
2023/02/01 08:58:26;;;;;;;26.20;6.05;;;;;;;5.81;100.00;101843.59;4718794;30;20084;-62
2023/02/01 09:00:54;;;;;;;25.75;5.85;;;;;;;5.79;100.00;101842.97;4717702;30;20060;-63
2023/02/01 09:03:22;;;;;;;24.13;6.28;;;;;;;5.81;100.00;101854.41;4717366;30;20053;-65
2023/02/01 09:05:50;;;;;;;22.48;7.03;;;;;;;5.85;100.00;101861.06;4718396;30;20059;-65
2023/02/01 09:08:20;;;;;;;24.13;6.35;;;;;;;5.86;100.00;101851.91;4714920;30;20469;-64
2023/02/01 09:10:48;;;;;;;18.48;5.50;;;;;;;5.87;100.00;101837.34;4717220;30;20061;-65
2023/02/01 09:13:16;;;;;;;23.02;5.65;;;;;;;5.89;100.00;101837.97;4387918;30;10000600;-65
2023/02/01 09:15:43;;;;;;;26.52;6.07;;;;;;;5.92;100.00;101842.13;4714751;30;20059;-66
2023/02/01 09:18:11;;;;;;;23.90;6.70;;;;;;;5.90;100.00;101842.31;4713847;30;20135;-64
2023/02/01 09:20:39;;;;;;;23.58;5.50;;;;;;;5.95;100.00;101833.59;4715376;30;20065;-64
2023/02/01 09:23:07;;;;;;;24.33;6.05;;;;;;;5.96;100.00;101828.00;4714753;30;20052;-65
2023/02/01 09:25:38;;;;;;;21.20;5.85;;;;;;;5.98;100.00;101822.34;4713410;30;20057;-65
2023/02/01 09:28:07;;;;;;;28.55;7.07;;;;;;;6.03;100.00;101809.00;4714376;30;20083;-65
2023/02/01 09:30:36;;;;;;;25.05;6.07;;;;;;;6.03;100.00;101835.25;4715486;30;20057;-65
2023/02/01 09:33:04;;;;;;;25.13;6.15;;;;;;;6.01;100.00;101827.34;4715015;30;20578;-66
2023/02/01 09:35:32;;;;;;;26.85;6.25;;;;;;;6.01;100.00;101826.50;4699374;30;20101;-65
2023/02/01 09:38:00;;;;;;;28.73;6.97;;;;;;;6.01;100.00;101837.34;4713534;30;20144;-64
2023/02/01 09:40:27;;;;;;;27.08;6.32;;;;;;;6.02;100.00;101833.59;4708345;30;20067;-65
2023/02/01 09:43:24;;;;;;;27.20;6.68;;;;;;;6.03;100.00;101836.06;4723323;30;20083;-65
2023/02/01 09:46:18;;;;;;;21.98;5.35;;;;;;;6.06;100.00;101834.81;4691408;30;20396;-65
2023/02/01 09:48:46;;;;;;;23.65;5.55;;;;;;;6.09;100.00;101837.13;4713208;30;20057;-65
2023/02/01 09:51:18;;;;;;;26.92;5.72;;;;;;;6.14;100.00;101827.31;4698373;30;20057;-65
2023/02/01 09:54:12;;;;;;;24.15;5.90;;;;;;;6.19;100.00;101818.53;4714256;30;20065;-64
2023/02/01 09:57:04;;;;;;;27.90;6.00;;;;;;;6.19;100.00;101819.38;4709551;30;20080;-65
2023/02/01 09:59:36;;;;;;;25.05;6.45;;;;;;;6.25;100.00;101827.69;4713140;30;20064;-65
2023/02/01 10:02:11;;;;;;;24.58;6.07;;;;;;;6.29;100.00;101832.44;4714394;30;20450;-66
2023/02/01 10:04:38;;;;;;;24.50;5.78;;;;;;;6.32;100.00;101807.66;4713243;30;20132;-66
2023/02/01 10:07:33;;;;;;;21.85;5.95;;;;;;;6.34;100.00;101829.91;4699164;30;20455;-65
2023/02/01 10:10:31;;;;;;;22.48;5.50;;;;;;;6.37;100.00;101829.50;4712803;30;20060;-65
2023/02/01 10:13:06;;;;;;;27.67;7.40;;;;;;;6.41;100.00;101829.91;4717793;30;20566;-64
2023/02/01 10:15:45;;;;;;;25.63;5.88;;;;;;;6.43;100.00;101843.22;4718397;30;20059;-65
2023/02/01 10:18:27;;;;;;;27.05;6.57;;;;;;;6.46;100.00;101849.03;4716115;30;20061;-65
2023/02/01 10:21:07;;;;;;;28.67;6.05;;;;;;;6.45;100.00;101827.59;4695560;30;20061;-64
2023/02/01 10:23:54;;;;;;;20.83;5.78;;;;;;;6.45;100.00;101838.44;4703863;30;20461;-66
2023/02/01 10:26:26;;;;;;;23.75;7.10;;;;;;;6.47;100.00;101847.16;4698471;30;20055;-65
2023/02/01 10:29:00;;;;;;;23.52;6.28;;;;;;;6.46;100.00;101850.91;4686161;30;20061;-66
2023/02/01 10:31:35;;;;;;;26.02;6.45;;;;;;;6.47;100.00;101849.84;4713617;30;20087;-65
2023/02/01 10:34:33;;;;;;;24.60;6.00;;;;;;;6.46;100.00;101850.91;4701387;30;20045;-65
2023/02/01 10:37:11;;;;;;;24.00;6.07;;;;;;;6.56;100.00;101853.97;4694495;30;20648;-64
2023/02/01 10:39:39;;;;;;;27.65;6.03;;;;;;;6.54;100.00;101853.34;4713365;30;20579;-65
2023/02/01 10:42:08;;;;;;;20.27;5.93;;;;;;;6.52;100.00;101845.47;4712977;30;20414;-65
2023/02/01 10:44:43;;;;;;;26.15;6.68;;;;;;;6.50;100.00;101844.03;4695175;30;20057;-64
2023/02/01 10:47:11;;;;;;;28.95;7.75;;;;;;;6.48;100.00;101848.81;4699301;30;20138;-66
2023/02/01 10:50:15;;;;;;;26.75;6.47;;;;;;;6.48;100.00;101841.53;4698283;30;20061;-67
2023/02/01 10:53:02;;;;;;;26.50;5.93;;;;;;;6.48;100.00;101832.59;4702498;30;20065;-67
2023/02/01 10:55:45;;;;;;;23.25;5.85;;;;;;;6.49;100.00;101829.63;4696598;30;20160;-65
2023/02/01 10:58:20;;;;;;;22.88;6.20;;;;;;;6.49;100.00;101820.69;4712934;30;20063;-63
2023/02/01 11:00:53;;;;;;;23.65;6.20;;;;;;;6.50;100.00;101827.78;4714009;30;20057;-64
2023/02/01 11:03:40;;;;;;;31.67;7.28;;;;;;;6.53;99.19;101808.38;4711625;30;20057;-64
2023/02/01 11:06:28;;;;;;;24.77;6.65;;;;;;;6.53;100.00;101802.97;4713117;30;20139;-65
2023/02/01 11:09:09;;;;;;;26.90;7.13;;;;;;;6.53;100.00;101792.16;4698258;30;20443;-64
2023/02/01 11:11:49;;;;;;;25.73;6.28;;;;;;;6.53;99.99;101794.84;4712598;30;20117;-65
2023/02/01 11:14:27;;;;;;;29.38;6.57;;;;;;;6.54;99.98;101793.78;4682712;30;20490;-65
2023/02/01 11:16:59;;;;;;;24.35;6.57;;;;;;;6.54;99.59;101794.66;4698371;30;20503;-65
2023/02/01 11:19:28;;;;;;;31.83;6.47;;;;;;;6.55;99.49;101768.41;4698114;30;20052;-65
2023/02/01 11:21:57;;;;;;;26.73;6.47;;;;;;;6.53;100.00;101781.31;4714090;30;20119;-65
2023/02/01 11:24:28;;;;;;;23.63;5.60;;;;;;;6.55;100.00;101784.63;4707353;30;20172;-65
2023/02/01 11:26:57;;;;;;;27.90;6.55;;;;;;;6.55;98.74;101771.94;4695487;30;20058;-65
2023/02/01 11:29:29;;;;;;;24.23;5.93;;;;;;;6.57;99.53;101782.56;4713653;30;20071;-64
2023/02/01 11:31:59;;;;;;;20.20;6.00;;;;;;;6.58;99.93;101790.44;4712549;30;20053;-65
2023/02/01 11:34:51;;;;;;;27.60;6.13;;;;;;;6.58;99.66;101781.50;4707868;30;20053;-65
2023/02/01 11:37:27;;;;;;;26.38;6.82;;;;;;;6.58;99.44;101774.19;4711826;30;20056;-65
2023/02/01 11:39:57;;;;;;;25.13;6.15;;;;;;;6.61;98.36;101783.75;4716220;30;20087;-65
2023/02/01 11:42:26;;;;;;;21.08;5.60;;;;;;;6.63;98.77;101781.66;4701151;30;20053;-65
2023/02/01 11:45:23;;;;;;;22.05;5.30;;;;;;;6.64;98.28;101772.50;4700178;30;20512;-67
2023/02/01 11:47:55;;;;;;;20.45;5.60;;;;;;;6.71;98.98;101777.84;4715441;30;20059;-64
2023/02/01 11:50:58;;;;;;;26.75;5.72;;;;;;;6.70;98.14;101771.63;4716655;30;20120;-65
2023/02/01 11:53:53;;;;;;;21.13;6.18;;;;;;;6.71;97.84;101769.72;4703957;30;20491;-65
2023/02/01 11:56:37;;;;;;;24.77;5.93;;;;;;;6.71;98.45;101772.44;4720083;30;20088;-65
2023/02/01 11:59:26;;;;;;;21.00;5.60;;;;;;;6.75;98.27;101774.50;4718685;30;20069;-64
2023/02/01 12:02:15;;;;;;;27.77;5.72;;;;;;;6.75;98.45;101765.56;4719678;30;20846;-65
2023/02/01 12:04:46;;;;;;;20.35;5.05;;;;;;;6.78;98.88;101748.84;4703626;30;20053;-64
2023/02/01 12:07:23;;;;;;;26.08;5.88;;;;;;;6.78;97.93;101768.66;4704528;30;20103;-64
2023/02/01 12:10:16;;;;;;;29.00;6.10;;;;;;;6.80;98.08;101763.00;4718230;30;20057;-65